Gans, Oklahoma
Current Conditions -  °F | °C
As of 8:35 PM on Saturday 20 Dec 2014 (Local Time) from KJSV Reporting Station
Haze Haze  
Wind Chill: 45°   Ceiling: 1800
Heat Index: 45°   Visibility: 5mi
Dew Point: 41°   Wind: 3mph
Humidity: 87%   Direction: 140°SE
Pressure: 30.22"   Gusts: NA
Location:  35.39°N, 94.69°W
Report Text: KJSV 210235Z AUTO 14003KT 5SM BR SCT011 BKN018 BKN029 07/05 A3022 RMK AO2
Loading
Personal Weather Stations






























Interactive Weather Map New forecast layout! Learn more

10-Day Weather Forecast

Advertisements
Track Severe Weather on mobile